Time;durP1;ratioP1;P1;durP2;ratioP2;P2;SDS_P1;SDS_P2;PMS_P1;PMS_P2;Temp;Humidity;BMP_temperature;BMP_pressure;BME280_temperature;BME280_humidity;BME280_pressure;Samples;Min_cycle;Max_cycle;Signal;HPM_P1;HPM_P2
2022/09/21 00:01:08;;;;;;;0.00;0.00;;;;;;;9.70;100.00;102579.72;5014288;28;20033;-77
2022/09/21 00:03:34;;;;;;;0.00;0.00;;;;;;;9.52;100.00;102557.28;5013317;28;20084;-77
2022/09/21 00:06:12;;;;;;;0.00;0.00;;;;;;;9.68;100.00;102586.06;5010848;28;20530;-78
2022/09/21 00:08:38;;;;;;;0.08;0.08;;;;;;;9.68;100.00;102578.03;5021355;28;20071;-77
2022/09/21 00:11:04;;;;;;;0.10;0.10;;;;;;;9.66;100.00;102575.44;5016861;28;20172;-78
2022/09/21 00:13:31;;;;;;;0.00;0.00;;;;;;;9.66;100.00;102579.94;5020027;28;20061;-77
2022/09/21 00:15:56;;;;;;;0.10;0.10;;;;;;;9.64;100.00;102576.44;5016119;28;20675;-77
2022/09/21 00:18:22;;;;;;;0.20;0.10;;;;;;;9.64;100.00;102576.44;5015714;28;20036;-77
2022/09/21 00:20:48;;;;;;;0.10;0.10;;;;;;;9.61;100.00;102574.75;5016636;28;20095;-78
2022/09/21 00:23:14;;;;;;;0.10;0.10;;;;;;;9.58;100.00;102574.91;5013868;28;20387;-78
2022/09/21 00:25:39;;;;;;;0.10;0.10;;;;;;;9.51;100.00;102565.41;5013078;28;20030;-78
2022/09/21 00:28:05;;;;;;;0.10;0.10;;;;;;;9.41;100.00;102565.81;5017743;28;20025;-78
2022/09/21 00:30:30;;;;;;;0.10;0.10;;;;;;;9.34;100.00;102572.41;5018461;28;20456;-78
2022/09/21 00:32:55;;;;;;;0.00;0.00;;;;;;;9.38;100.00;102570.47;5009180;28;20029;-78
2022/09/21 00:35:21;;;;;;;0.10;0.10;;;;;;;9.40;100.00;102569.44;5023762;28;20455;-77
2022/09/21 00:37:46;;;;;;;0.10;0.10;;;;;;;9.34;100.00;102563.50;5021316;28;20120;-78
2022/09/21 00:40:11;;;;;;;0.00;0.00;;;;;;;9.32;100.00;102571.59;5011408;28;20067;-78
2022/09/21 00:42:37;;;;;;;0.10;0.10;;;;;;;9.23;100.00;102569.34;5014604;28;20029;-78
2022/09/21 00:45:03;;;;;;;0.08;0.08;;;;;;;9.05;100.00;102545.09;5017257;28;20063;-78
2022/09/21 00:47:38;;;;;;;0.10;0.10;;;;;;;9.12;100.00;102561.78;5018884;28;20578;-78
2022/09/21 00:50:10;;;;;;;0.10;0.10;;;;;;;9.10;100.00;102566.34;4998392;28;20025;-78
2022/09/21 00:52:39;;;;;;;0.10;0.10;;;;;;;9.10;100.00;102564.50;5017674;28;20026;-78
2022/09/21 00:55:30;;;;;;;0.00;0.00;;;;;;;9.06;100.00;102565.59;5016341;28;20476;-78
2022/09/21 00:58:03;;;;;;;0.10;0.10;;;;;;;8.91;100.00;102552.88;5017946;28;20041;-77
2022/09/21 01:00:29;;;;;;;0.10;0.10;;;;;;;9.04;100.00;102578.16;5017468;28;20427;-78
2022/09/21 01:03:00;;;;;;;0.10;0.10;;;;;;;8.86;100.00;102555.75;5015906;28;20037;-78
2022/09/21 01:05:26;;;;;;;0.10;0.10;;;;;;;9.00;100.00;102573.91;5012391;28;20061;-77
2022/09/21 01:07:51;;;;;;;0.00;0.00;;;;;;;9.00;100.00;102568.56;5011274;28;20144;-77
2022/09/21 01:10:18;;;;;;;0.00;0.00;;;;;;;9.01;100.00;102580.97;5015390;28;20036;-78
2022/09/21 01:12:59;;;;;;;0.10;0.10;;;;;;;8.80;100.00;102553.34;5031686;28;20049;-77
2022/09/21 01:15:49;;;;;;;0.10;0.10;;;;;;;8.92;100.00;102576.03;5018396;28;20451;-77
2022/09/21 01:18:31;;;;;;;0.08;0.08;;;;;;;8.90;100.00;102585.94;5014354;28;20033;-77
2022/09/21 01:21:13;;;;;;;0.00;0.00;;;;;;;8.84;100.00;102576.38;5027108;28;20116;-77
2022/09/21 01:23:57;;;;;;;0.08;0.08;;;;;;;8.78;100.00;102576.63;5012775;28;20365;-78
2022/09/21 01:26:36;;;;;;;0.10;0.10;;;;;;;8.63;100.00;102578.16;5011789;28;20036;-78
2022/09/21 01:29:32;;;;;;;0.10;0.10;;;;;;;8.67;100.00;102585.97;5011274;28;20328;-77
2022/09/21 01:32:09;;;;;;;0.10;0.10;;;;;;;8.64;100.00;102578.06;5012321;28;20021;-77
2022/09/21 01:34:47;;;;;;;0.10;0.10;;;;;;;8.60;100.00;102583.63;5015562;28;20025;-77
2022/09/21 01:37:16;;;;;;;0.10;0.10;;;;;;;8.50;100.00;102583.13;5011937;28;20029;-77
2022/09/21 01:39:44;;;;;;;0.03;0.03;;;;;;;8.50;100.00;102581.31;5016589;28;20108;-78
2022/09/21 01:42:11;;;;;;;0.10;0.10;;;;;;;8.33;100.00;102570.41;5023138;28;20040;-78
2022/09/21 01:44:38;;;;;;;0.10;0.10;;;;;;;8.37;100.00;102585.41;5021844;28;20031;-78
2022/09/21 01:47:06;;;;;;;0.10;0.10;;;;;;;8.26;100.00;102591.19;5017208;28;21233;-78
2022/09/21 01:49:36;;;;;;;0.00;0.00;;;;;;;8.22;100.00;102587.75;5018973;28;20029;-77
2022/09/21 01:52:10;;;;;;;0.10;0.10;;;;;;;8.09;100.00;102571.31;5014316;28;20036;-78
2022/09/21 01:54:40;;;;;;;0.10;0.10;;;;;;;8.16;100.00;102585.34;5017057;28;20057;-78
2022/09/21 01:57:24;;;;;;;0.10;0.10;;;;;;;8.20;100.00;102592.31;5013768;28;20345;-78
2022/09/21 01:59:53;;;;;;;0.10;0.10;;;;;;;8.18;100.00;102590.63;5017890;28;20044;-77
2022/09/21 02:02:49;;;;;;;0.10;0.10;;;;;;;8.16;100.00;102581.78;5037293;28;20080;-78
2022/09/21 02:05:17;;;;;;;0.10;0.10;;;;;;;8.14;100.00;102579.19;5015671;28;20048;-78
2022/09/21 02:07:42;;;;;;;0.00;0.00;;;;;;;8.15;100.00;102580.94;5017136;28;20033;-78
2022/09/21 02:10:12;;;;;;;0.00;0.00;;;;;;;8.09;100.00;102575.81;5020550;28;20021;-77
2022/09/21 02:12:38;;;;;;;0.05;0.05;;;;;;;7.62;100.00;102564.22;5016609;28;20057;-77
2022/09/21 02:15:04;;;;;;;0.10;0.10;;;;;;;7.60;100.00;102587.47;5020913;28;20124;-78
2022/09/21 02:17:45;;;;;;;0.10;0.10;;;;;;;7.50;100.00;102578.03;5017325;28;20505;-78
2022/09/21 02:20:17;;;;;;;0.00;0.00;;;;;;;7.52;100.00;102578.84;5021386;28;20025;-77
2022/09/21 02:23:11;;;;;;;0.10;0.10;;;;;;;7.51;100.00;102577.09;5013893;28;20040;-77
2022/09/21 02:25:52;;;;;;;0.10;0.10;;;;;;;7.47;100.00;102575.47;4973625;28;20540;-77
2022/09/21 02:28:36;;;;;;;0.10;0.10;;;;;;;7.44;100.00;102580.94;5014665;28;20025;-78
2022/09/21 02:31:07;;;;;;;0.00;0.00;;;;;;;7.43;100.00;102582.75;5012804;28;21543;-78
2022/09/21 02:33:54;;;;;;;0.10;0.10;;;;;;;7.40;100.00;102577.50;5015494;28;20037;-78
2022/09/21 02:36:44;;;;;;;0.10;0.10;;;;;;;7.40;100.00;102579.31;5019506;28;20029;-78
2022/09/21 02:39:14;;;;;;;0.00;0.00;;;;;;;7.36;100.00;102575.88;5018935;28;20025;-77
2022/09/21 02:41:51;;;;;;;0.00;0.00;;;;;;;7.27;100.00;102571.75;5005895;28;20033;-77
2022/09/21 02:44:19;;;;;;;0.08;0.08;;;;;;;7.27;100.00;102578.91;5020527;28;20029;-78
2022/09/21 02:46:55;;;;;;;0.05;0.05;;;;;;;7.19;100.00;102576.47;5018105;28;20120;-77
2022/09/21 02:49:30;;;;;;;0.10;0.10;;;;;;;7.14;100.00;102576.66;5015969;28;20075;-77
2022/09/21 02:51:58;;;;;;;0.10;0.10;;;;;;;7.14;100.00;102567.78;5013332;28;20995;-78
2022/09/21 02:54:26;;;;;;;0.00;0.00;;;;;;;7.12;100.00;102567.81;5018248;28;20075;-77
2022/09/21 02:56:52;;;;;;;0.10;0.10;;;;;;;7.11;100.00;102575.91;5001286;28;20029;-78
2022/09/21 02:59:18;;;;;;;0.10;0.10;;;;;;;6.99;100.00;102558.50;5023889;28;20063;-78
2022/09/21 03:01:44;;;;;;;0.10;0.10;;;;;;;6.98;100.00;102570.13;5020965;28;20033;-78
2022/09/21 03:04:09;;;;;;;0.05;0.05;;;;;;;6.84;100.00;102570.59;5019579;28;20490;-77
2022/09/21 03:06:35;;;;;;;0.20;0.20;;;;;;;6.61;100.00;102553.56;5021826;28;20117;-78
2022/09/21 03:09:00;;;;;;;0.10;0.10;;;;;;;6.62;100.00;102570.44;5017991;28;20111;-77
2022/09/21 03:11:26;;;;;;;0.10;0.10;;;;;;;6.47;100.00;102563.81;5021656;28;20519;-78
2022/09/21 03:13:51;;;;;;;0.10;0.10;;;;;;;6.41;100.00;102565.75;5019866;28;20122;-78
2022/09/21 03:16:17;;;;;;;0.00;0.00;;;;;;;6.46;100.00;102576.28;5022736;28;20028;-78
2022/09/21 03:18:43;;;;;;;0.10;0.10;;;;;;;6.41;100.00;102573.75;5018176;28;20029;-78
2022/09/21 03:21:09;;;;;;;0.10;0.10;;;;;;;6.36;100.00;102569.50;5020729;28;20420;-78
2022/09/21 03:23:34;;;;;;;0.10;0.10;;;;;;;6.41;100.00;102560.41;5019126;28;20025;-78
2022/09/21 03:26:00;;;;;;;0.10;0.10;;;;;;;6.60;100.00;102583.84;5015628;28;20064;-77
2022/09/21 03:28:25;;;;;;;0.10;0.10;;;;;;;6.60;100.00;102578.50;5020362;28;20148;-78
2022/09/21 03:30:51;;;;;;;0.00;0.00;;;;;;;6.62;100.00;102589.13;5018059;28;20112;-77
2022/09/21 03:33:18;;;;;;;0.10;0.10;;;;;;;6.61;100.00;102582.91;5022264;28;20392;-78
2022/09/21 03:35:43;;;;;;;0.03;0.03;;;;;;;6.63;100.00;102591.72;5021580;28;20020;-78
2022/09/21 03:38:08;;;;;;;0.10;0.10;;;;;;;6.41;100.00;102565.75;5021282;28;20029;-78
2022/09/21 03:40:34;;;;;;;0.10;0.10;;;;;;;6.42;100.00;102569.31;5022523;28;20131;-78
2022/09/21 03:42:59;;;;;;;0.10;0.10;;;;;;;6.52;100.00;102594.75;5025407;28;20029;-78
2022/09/21 03:45:26;;;;;;;0.10;0.10;;;;;;;6.38;100.00;102573.84;5027518;28;20034;-78
2022/09/21 03:47:56;;;;;;;0.00;0.00;;;;;;;6.44;100.00;102596.81;5026809;28;20067;-78
2022/09/21 03:50:22;;;;;;;0.10;0.10;;;;;;;6.37;100.00;102590.78;5025614;28;20018;-78
2022/09/21 03:52:48;;;;;;;0.00;0.00;;;;;;;6.43;100.00;102600.41;5020896;28;20037;-78
2022/09/21 03:55:13;;;;;;;0.10;0.10;;;;;;;6.43;100.00;102603.94;5018038;28;20032;-78
2022/09/21 03:57:38;;;;;;;0.10;0.10;;;;;;;6.14;100.00;102571.03;5018251;28;20057;-78
2022/09/21 04:00:07;;;;;;;0.00;0.00;;;;;;;6.34;100.00;102595.34;5022490;28;20067;-78
2022/09/21 04:02:32;;;;;;;0.10;0.10;;;;;;;6.22;100.00;102602.84;5022949;28;20060;-78
2022/09/21 04:04:58;;;;;;;0.00;0.00;;;;;;;6.13;100.00;102595.09;5023362;28;20029;-78
2022/09/21 04:07:23;;;;;;;0.10;0.10;;;;;;;6.14;100.00;102604.84;5022115;28;20033;-78
2022/09/21 04:09:49;;;;;;;0.10;0.10;;;;;;;6.09;100.00;102596.13;5019492;28;20030;-78
2022/09/21 04:12:14;;;;;;;0.00;0.00;;;;;;;6.14;100.00;102602.19;5023168;28;20168;-78
2022/09/21 04:14:39;;;;;;;0.05;0.05;;;;;;;5.97;100.00;102576.00;5019293;28;20037;-78
2022/09/21 04:17:05;;;;;;;0.00;0.00;;;;;;;5.92;100.00;102570.81;5021955;28;20114;-78
2022/09/21 04:19:30;;;;;;;0.10;0.10;;;;;;;6.03;100.00;102598.97;5026141;28;20029;-78
2022/09/21 04:21:55;;;;;;;0.08;0.08;;;;;;;5.92;100.00;102591.25;5024484;28;20040;-78
2022/09/21 04:24:21;;;;;;;0.10;0.10;;;;;;;5.86;100.00;102589.66;5020146;28;20546;-77
2022/09/21 04:26:46;;;;;;;0.10;0.10;;;;;;;5.85;100.00;102598.56;5006175;28;20029;-78
2022/09/21 04:29:13;;;;;;;0.10;0.10;;;;;;;5.80;100.00;102592.50;5025841;28;20031;-78
2022/09/21 04:31:38;;;;;;;0.00;0.00;;;;;;;5.79;100.00;102602.31;5017725;28;20037;-78
2022/09/21 04:34:03;;;;;;;0.00;0.00;;;;;;;5.67;100.00;102595.53;5016496;28;20029;-78
2022/09/21 04:36:31;;;;;;;0.00;0.00;;;;;;;5.56;100.00;102584.31;5021980;28;20456;-78
2022/09/21 04:38:57;;;;;;;0.10;0.10;;;;;;;5.56;100.00;102602.97;5027100;28;20084;-77
2022/09/21 04:41:22;;;;;;;0.10;0.10;;;;;;;5.31;100.00;102593.00;5023434;28;20438;-77
2022/09/21 04:43:48;;;;;;;0.00;0.00;;;;;;;5.25;100.00;102612.69;5003800;28;20029;-77
2022/09/21 04:46:15;;;;;;;0.00;0.00;;;;;;;5.07;100.00;102579.44;5023988;28;20093;-78
2022/09/21 04:48:41;;;;;;;0.10;0.10;;;;;;;5.37;100.00;102614.13;5023004;28;20041;-77
2022/09/21 04:51:07;;;;;;;0.10;0.10;;;;;;;5.43;100.00;102618.41;5017152;28;20025;-78
2022/09/21 04:53:34;;;;;;;0.10;0.10;;;;;;;5.48;100.00;102620.94;5021632;28;20033;-78
2022/09/21 04:56:00;;;;;;;0.10;0.10;;;;;;;5.52;100.00;102622.59;5012743;28;20033;-78
2022/09/21 04:58:25;;;;;;;0.00;0.00;;;;;;;5.45;100.00;102610.38;5023487;28;20690;-78
2022/09/21 05:00:52;;;;;;;0.10;0.10;;;;;;;5.33;100.00;102579.63;5023383;28;20144;-77
2022/09/21 05:03:18;;;;;;;0.00;0.00;;;;;;;5.54;100.00;102628.78;5016153;28;20140;-76
2022/09/21 05:05:51;;;;;;;0.10;0.10;;;;;;;5.39;100.00;102611.41;5013230;28;22843;-77
2022/09/21 05:08:17;;;;;;;0.10;0.10;;;;;;;5.44;100.00;102625.50;5018037;28;20029;-76
2022/09/21 05:10:43;;;;;;;0.00;0.00;;;;;;;5.32;100.00;102608.06;5022037;28;20025;-75
2022/09/21 05:13:09;;;;;;;0.10;0.10;;;;;;;5.42;100.00;102627.31;5016895;28;20063;-76
2022/09/21 05:15:37;;;;;;;0.10;0.10;;;;;;;5.50;100.00;102635.09;5022769;28;20021;-76
2022/09/21 05:18:02;;;;;;;0.10;0.10;;;;;;;5.28;100.00;102592.22;5042091;28;20030;-76
2022/09/21 05:20:28;;;;;;;0.08;0.08;;;;;;;5.48;100.00;102636.94;5026536;28;20063;-76
2022/09/21 05:22:53;;;;;;;0.10;0.10;;;;;;;5.45;100.00;102642.34;5028504;28;20095;-76
2022/09/21 05:25:18;;;;;;;0.00;0.00;;;;;;;5.46;100.00;102633.44;5022373;28;20029;-76
2022/09/21 05:27:43;;;;;;;0.00;0.00;;;;;;;5.39;100.00;102633.63;5013306;28;20064;-76
2022/09/21 05:30:09;;;;;;;0.10;0.10;;;;;;;5.40;100.00;102643.34;5026779;28;20071;-76
2022/09/21 05:32:41;;;;;;;0.10;0.10;;;;;;;5.38;100.00;102634.53;5005919;28;20021;-76
2022/09/21 05:35:27;;;;;;;0.10;0.10;;;;;;;5.34;100.00;102639.97;5024769;28;20032;-76
2022/09/21 05:38:07;;;;;;;0.00;0.00;;;;;;;5.07;100.00;102603.38;5026872;28;20033;-76
2022/09/21 05:40:33;;;;;;;0.00;0.00;;;;;;;5.18;100.00;102636.81;5016997;28;20455;-76
2022/09/21 05:42:59;;;;;;;0.00;0.00;;;;;;;5.25;100.00;102649.97;5029307;28;20614;-76
2022/09/21 05:45:25;;;;;;;0.17;0.17;;;;;;;5.08;100.00;102620.22;5019957;28;20488;-76
2022/09/21 05:48:02;;;;;;;0.00;0.00;;;;;;;5.22;100.00;102641.16;5023606;28;20029;-76
2022/09/21 05:50:27;;;;;;;0.10;0.10;;;;;;;5.25;100.00;102644.63;5023931;28;20025;-78
2022/09/21 05:53:04;;;;;;;0.10;0.10;;;;;;;5.22;100.00;102649.16;5022539;28;20033;-76
2022/09/21 05:55:42;;;;;;;0.10;0.10;;;;;;;5.16;100.00;102654.66;5014834;28;20282;-76
2022/09/21 05:58:33;;;;;;;0.00;0.00;;;;;;;5.04;100.00;102631.88;5020373;28;20451;-76
2022/09/21 06:01:08;;;;;;;0.10;0.10;;;;;;;5.15;100.00;102650.25;5028332;28;20041;-76
2022/09/21 06:03:35;;;;;;;0.10;0.10;;;;;;;5.33;100.00;102667.50;5026369;28;20039;-76
2022/09/21 06:06:00;;;;;;;0.10;0.10;;;;;;;5.45;100.00;102674.31;5020243;28;20529;-77
2022/09/21 06:08:26;;;;;;;0.10;0.10;;;;;;;5.55;100.00;102674.03;5037182;28;20029;-76
2022/09/21 06:10:52;;;;;;;0.10;0.10;;;;;;;5.60;100.00;102659.69;5025525;28;20080;-76
2022/09/21 06:13:17;;;;;;;0.10;0.10;;;;;;;5.59;100.00;102658.84;5025140;28;20045;-76
2022/09/21 06:15:42;;;;;;;0.17;0.17;;;;;;;5.70;100.00;102678.03;5018667;28;20403;-77
2022/09/21 06:18:08;;;;;;;0.10;0.10;;;;;;;5.58;100.00;102665.06;5022003;28;20033;-77
2022/09/21 06:20:34;;;;;;;0.10;0.10;;;;;;;5.52;100.00;102655.47;5018401;28;20495;-77
2022/09/21 06:23:07;;;;;;;0.10;0.10;;;;;;;5.73;100.00;102684.22;5015544;28;20037;-77
2022/09/21 06:25:33;;;;;;;0.10;0.10;;;;;;;5.73;100.00;102673.53;5022190;28;20083;-76
2022/09/21 06:28:09;;;;;;;0.10;0.10;;;;;;;5.96;100.00;102689.75;5023714;28;20029;-76
2022/09/21 06:30:34;;;;;;;0.10;0.10;;;;;;;6.08;100.00;102679.72;5016479;28;20144;-76
2022/09/21 06:33:00;;;;;;;0.10;0.10;;;;;;;6.14;100.00;102683.06;5021588;28;20080;-76
2022/09/21 06:35:27;;;;;;;0.13;0.10;;;;;;;6.17;100.00;102679.44;5030538;28;20108;-76
2022/09/21 06:37:56;;;;;;;0.10;0.10;;;;;;;6.24;100.00;102677.47;5021738;28;20037;-76
2022/09/21 06:40:22;;;;;;;0.10;0.10;;;;;;;6.29;100.00;102672.88;5025156;28;20021;-76
2022/09/21 06:42:47;;;;;;;0.10;0.10;;;;;;;6.41;100.00;102677.81;5025235;28;20033;-76
2022/09/21 06:45:12;;;;;;;0.10;0.10;;;;;;;6.54;100.00;102680.97;5023224;28;20037;-77
2022/09/21 06:47:37;;;;;;;0.10;0.10;;;;;;;6.57;100.00;102654.19;5019695;28;20483;-77
2022/09/21 06:50:03;;;;;;;0.10;0.10;;;;;;;6.72;100.00;102663.50;5018437;28;20036;-76
2022/09/21 06:52:28;;;;;;;0.10;0.10;;;;;;;7.02;100.00;102684.78;5021606;28;20056;-77
2022/09/21 06:54:54;;;;;;;0.10;0.10;;;;;;;7.19;100.00;102675.31;5020377;28;20029;-77
2022/09/21 06:57:19;;;;;;;0.10;0.10;;;;;;;7.35;100.00;102679.22;5013959;28;20061;-77
2022/09/21 06:59:44;;;;;;;0.00;0.00;;;;;;;7.55;100.00;102674.97;5002715;28;20389;-77
2022/09/21 07:02:10;;;;;;;0.00;0.00;;;;;;;7.75;100.00;102681.41;5022616;28;20034;-77
2022/09/21 07:04:36;;;;;;;0.00;0.00;;;;;;;7.86;100.00;102662.28;5022413;28;20100;-76
2022/09/21 07:07:01;;;;;;;0.00;0.00;;;;;;;7.98;100.00;102666.28;5025207;28;20468;-77
2022/09/21 07:09:26;;;;;;;0.10;0.10;;;;;;;8.33;100.00;102680.13;5027170;28;20029;-77
2022/09/21 07:11:53;;;;;;;0.10;0.10;;;;;;;8.45;100.00;102670.75;5028163;28;20629;-76
2022/09/21 07:14:19;;;;;;;0.10;0.10;;;;;;;8.67;100.00;102678.84;5023101;28;20503;-77
2022/09/21 07:16:44;;;;;;;0.00;0.00;;;;;;;8.91;100.00;102678.78;5017608;28;20032;-77
2022/09/21 07:19:10;;;;;;;0.10;0.10;;;;;;;9.09;100.00;102679.81;5027042;28;20104;-74
2022/09/21 07:21:35;;;;;;;0.10;0.10;;;;;;;9.26;100.00;102676.41;5027104;28;20042;-75
2022/09/21 07:24:00;;;;;;;0.10;0.10;;;;;;;9.37;100.00;102667.91;5019017;28;20049;-77
2022/09/21 07:26:26;;;;;;;0.10;0.10;;;;;;;9.60;100.00;102678.50;5020835;28;20071;-77
2022/09/21 07:28:51;;;;;;;0.10;0.10;;;;;;;9.76;100.00;102680.47;5026289;28;20021;-78
2022/09/21 07:31:16;;;;;;;0.10;0.10;;;;;;;9.93;100.00;102681.53;5023245;28;20029;-74
2022/09/21 07:33:45;;;;;;;0.10;0.10;;;;;;;10.04;100.00;102672.06;5026704;28;20471;-75
2022/09/21 07:36:11;;;;;;;0.10;0.10;;;;;;;10.26;100.00;102679.09;5025054;28;20071;-74
2022/09/21 07:38:41;;;;;;;0.10;0.10;;;;;;;10.36;100.00;102666.97;5025555;28;20028;-73
2022/09/21 07:41:07;;;;;;;0.10;0.10;;;;;;;10.53;100.00;102681.44;5022389;28;20476;-74
2022/09/21 07:43:33;;;;;;;0.03;0.03;;;;;;;10.70;100.00;102677.06;5040385;28;20549;-74
2022/09/21 07:46:00;;;;;;;0.10;0.10;;;;;;;10.60;100.00;102660.53;5025860;28;20068;-74
2022/09/21 07:48:27;;;;;;;0.10;0.10;;;;;;;10.80;100.00;102676.53;5026887;28;20049;-74
2022/09/21 07:50:53;;;;;;;0.10;0.10;;;;;;;10.98;100.00;102673.88;5024859;28;20095;-74
2022/09/21 07:53:18;;;;;;;0.10;0.10;;;;;;;11.20;100.00;102675.47;5020722;28;20040;-76
2022/09/21 07:55:44;;;;;;;0.10;0.10;;;;;;;11.35;100.00;102666.59;5017703;28;20022;-74
2022/09/21 08:00:54;;;;;;;0.10;0.10;;;;;;;11.45;100.00;102650.84;5024441;28;20109;-76
2022/09/21 08:03:19;;;;;;;0.05;0.05;;;;;;;11.73;100.00;102672.75;5027726;28;20029;-73
2022/09/21 08:05:45;;;;;;;0.10;0.10;;;;;;;11.79;100.00;102654.44;5016897;28;20041;-75
2022/09/21 08:08:10;;;;;;;0.10;0.10;;;;;;;11.87;99.64;102666.63;5014918;28;20083;-79
2022/09/21 08:10:36;;;;;;;0.10;0.10;;;;;;;11.73;98.79;102657.47;5019843;28;20025;-78
2022/09/21 08:13:01;;;;;;;0.10;0.10;;;;;;;12.05;100.00;102672.88;5012720;28;20088;-73
2022/09/21 08:15:27;;;;;;;0.10;0.10;;;;;;;12.21;99.79;102667.47;5022835;28;20033;-74
2022/09/21 08:17:53;;;;;;;0.10;0.10;;;;;;;12.44;97.76;102671.56;5021152;28;20439;-74
2022/09/21 08:20:18;;;;;;;0.00;0.00;;;;;;;12.68;96.56;102668.44;5023775;28;20490;-75
2022/09/21 08:22:44;;;;;;;0.10;0.10;;;;;;;12.73;94.09;102663.66;5023256;28;20037;-74
2022/09/21 08:25:12;;;;;;;0.00;0.00;;;;;;;12.99;93.37;102675.59;5021892;28;20422;-75
2022/09/21 08:27:39;;;;;;;0.10;0.10;;;;;;;13.14;91.25;102681.91;5026574;28;20029;-75
2022/09/21 08:30:06;;;;;;;0.10;0.10;;;;;;;13.23;90.04;102677.81;5014432;28;20327;-75
2022/09/21 08:32:31;;;;;;;0.00;0.00;;;;;;;13.28;89.87;102666.75;5026978;28;20392;-75
2022/09/21 08:34:57;;;;;;;0.00;0.00;;;;;;;13.39;87.07;102672.34;5021209;28;20029;-74
2022/09/21 08:37:22;;;;;;;0.10;0.10;;;;;;;13.49;85.82;102680.81;5019574;28;20061;-74
2022/09/21 08:39:47;;;;;;;0.03;0.03;;;;;;;13.57;86.77;102673.09;5023943;28;20123;-76
2022/09/21 08:42:41;;;;;;;0.10;0.10;;;;;;;13.49;89.60;102657.38;5021869;28;20120;-70
2022/09/21 08:45:16;;;;;;;0.10;0.10;;;;;;;13.65;87.38;102668.09;5021368;28;20057;-73
2022/09/21 08:47:48;;;;;;;0.00;0.00;;;;;;;13.79;88.65;102672.63;5028888;28;20128;-74
2022/09/21 08:50:33;;;;;;;0.10;0.10;;;;;;;13.96;86.79;102670.69;5025503;28;20601;-73
2022/09/21 08:53:18;;;;;;;0.00;0.00;;;;;;;14.13;88.31;102676.88;5018744;28;20060;-73
2022/09/21 08:55:44;;;;;;;0.00;0.00;;;;;;;14.20;85.36;102667.38;5019058;28;20032;-74
2022/09/21 08:58:26;;;;;;;0.10;0.10;;;;;;;14.32;82.38;102671.13;5028167;28;20029;-75
2022/09/21 09:01:13;;;;;;;0.10;0.10;;;;;;;14.28;81.81;102678.56;5021289;28;20029;-73
2022/09/21 09:04:07;;;;;;;0.00;0.00;;;;;;;14.57;82.20;102677.66;5019605;28;20159;-76
2022/09/21 09:06:51;;;;;;;0.00;0.00;;;;;;;14.68;78.79;102683.22;5030500;28;20033;-74
2022/09/21 09:09:53;;;;;;;0.10;0.10;;;;;;;14.72;77.59;102687.47;5029080;28;20018;-78
2022/09/21 09:12:41;;;;;;;0.10;0.10;;;;;;;14.87;77.22;102684.72;5024414;28;20108;-75
2022/09/21 09:15:25;;;;;;;0.00;0.00;;;;;;;15.10;77.93;102686.72;5025827;28;20022;-74
2022/09/21 09:18:01;;;;;;;0.00;0.00;;;;;;;15.17;77.89;102687.22;5026285;28;20060;-75
2022/09/21 09:20:39;;;;;;;0.00;0.00;;;;;;;15.30;75.58;102690.78;5024298;28;20718;-74
2022/09/21 09:23:10;;;;;;;0.00;0.00;;;;;;;15.30;72.88;102688.09;5023791;28;20403;-73
2022/09/21 09:25:38;;;;;;;0.00;0.00;;;;;;;15.28;72.59;102689.19;5021045;28;20033;-74
2022/09/21 09:28:16;;;;;;;0.00;0.00;;;;;;;15.04;74.70;102683.59;5020560;28;20030;-74
2022/09/21 09:30:42;;;;;;;0.10;0.10;;;;;;;15.04;73.91;102668.25;5023849;28;20559;-74
2022/09/21 09:33:21;;;;;;;0.10;0.10;;;;;;;15.62;75.98;102686.84;5022929;28;20039;-73
2022/09/21 09:35:49;;;;;;;0.00;0.00;;;;;;;15.96;75.56;102686.31;5019784;28;20056;-75
2022/09/21 09:38:26;;;;;;;0.00;0.00;;;;;;;16.08;71.06;102674.56;5026854;28;20044;-74
2022/09/21 09:41:07;;;;;;;0.00;0.00;;;;;;;16.54;72.59;102692.03;5024853;28;20037;-73
2022/09/21 09:44:10;;;;;;;0.00;0.00;;;;;;;16.73;70.22;102693.38;5023784;28;20040;-73
2022/09/21 09:46:48;;;;;;;0.00;0.00;;;;;;;16.93;66.78;102694.59;5021242;28;20056;-72
2022/09/21 09:49:41;;;;;;;0.00;0.00;;;;;;;16.75;64.43;102689.56;5020452;28;20076;-77
2022/09/21 09:52:10;;;;;;;0.00;0.00;;;;;;;16.23;66.28;102688.84;5027314;28;20033;-72
2022/09/21 09:54:35;;;;;;;0.00;0.00;;;;;;;16.25;63.01;102691.47;5022558;28;20030;-77
2022/09/21 09:57:03;;;;;;;0.00;0.00;;;;;;;15.89;64.47;102656.94;5018162;28;20029;-71
2022/09/21 09:59:38;;;;;;;0.00;0.00;;;;;;;16.00;65.81;102679.72;5026827;28;20372;-70
2022/09/21 10:02:18;;;;;;;0.00;0.00;;;;;;;15.66;64.52;102682.91;5021092;28;20029;-72
2022/09/21 10:05:04;;;;;;;0.00;0.00;;;;;;;15.50;66.91;102668.72;5018987;28;20128;-72
2022/09/21 10:07:34;;;;;;;0.05;0.05;;;;;;;15.82;68.68;102693.53;5024965;28;20063;-72
2022/09/21 10:10:00;;;;;;;0.10;0.10;;;;;;;16.30;66.13;102683.84;5018663;28;20112;-71
2022/09/21 10:12:26;;;;;;;0.00;0.00;;;;;;;16.75;64.18;102658.84;5022626;28;20384;-72
2022/09/21 10:14:54;;;;;;;0.10;0.10;;;;;;;17.08;62.46;102687.16;5023866;28;20044;-72
2022/09/21 10:17:20;;;;;;;0.00;0.00;;;;;;;17.34;64.58;102684.28;5024321;28;20387;-72
2022/09/21 10:19:45;;;;;;;0.00;0.00;;;;;;;17.53;63.51;102667.44;5016207;28;20025;-72
2022/09/21 10:22:15;;;;;;;0.00;0.00;;;;;;;17.73;61.95;102675.84;5015131;28;20453;-72
2022/09/21 10:24:47;;;;;;;0.00;0.00;;;;;;;18.09;60.45;102679.34;5024176;28;20045;-72
2022/09/21 10:27:15;;;;;;;0.00;0.00;;;;;;;18.00;58.89;102659.22;5023588;28;20463;-72
2022/09/21 10:29:45;;;;;;;0.00;0.00;;;;;;;17.98;58.60;102675.63;5020688;28;20037;-72
2022/09/21 10:32:26;;;;;;;0.00;0.00;;;;;;;17.70;57.11;102668.81;5020756;28;20053;-72
2022/09/21 10:35:04;;;;;;;0.00;0.00;;;;;;;17.70;57.47;102660.66;5031794;28;20127;-72
2022/09/21 10:37:36;;;;;;;0.00;0.00;;;;;;;17.81;59.98;102666.09;5021979;28;20227;-71
2022/09/21 10:40:02;;;;;;;0.03;0.03;;;;;;;18.26;58.12;102667.09;5021478;28;20026;-72
2022/09/21 10:42:34;;;;;;;0.00;0.00;;;;;;;19.06;54.75;102654.13;5023605;28;20045;-72
2022/09/21 10:45:11;;;;;;;0.00;0.00;;;;;;;19.95;52.55;102660.09;5013771;28;20072;-72
2022/09/21 10:47:42;;;;;;;0.00;0.00;;;;;;;20.12;51.96;102653.16;5021422;28;20025;-72
2022/09/21 10:50:26;;;;;;;0.00;0.00;;;;;;;19.81;52.24;102655.84;5019598;28;20029;-72
2022/09/21 10:53:01;;;;;;;0.00;0.00;;;;;;;19.24;50.22;102657.13;5026223;28;20043;-72
2022/09/21 10:55:28;;;;;;;0.00;0.00;;;;;;;19.87;52.00;102658.03;5017870;28;20613;-72
2022/09/21 10:57:54;;;;;;;0.00;0.00;;;;;;;20.77;50.86;102658.19;5025944;28;20033;-72
2022/09/21 11:00:22;;;;;;;0.00;0.00;;;;;;;21.63;49.47;102651.91;5023801;28;20033;-72
2022/09/21 11:02:49;;;;;;;0.00;0.00;;;;;;;22.06;46.82;102656.91;5018517;28;20173;-72
2022/09/21 11:05:18;;;;;;;0.00;0.00;;;;;;;22.01;42.74;102660.94;5021518;28;20806;-71
2022/09/21 11:07:51;;;;;;;0.00;0.00;;;;;;;21.34;46.08;102658.28;5021555;28;20304;-72
2022/09/21 11:10:38;;;;;;;0.00;0.00;;;;;;;20.76;47.28;102656.44;5019881;28;20383;-72
2022/09/21 11:13:40;;;;;;;0.00;0.00;;;;;;;19.90;45.36;102657.81;5022152;28;20053;-72
2022/09/21 11:16:14;;;;;;;0.00;0.00;;;;;;;19.53;49.35;102655.56;5034933;28;20040;-72
2022/09/21 11:18:48;;;;;;;0.00;0.00;;;;;;;19.09;49.14;102662.03;5012678;28;20029;-72
2022/09/21 11:21:29;;;;;;;0.00;0.00;;;;;;;18.94;49.44;102658.72;5026246;28;20025;-72
2022/09/21 11:24:20;;;;;;;0.00;0.00;;;;;;;19.58;49.40;102653.31;5024997;28;20095;-72
2022/09/21 11:26:51;;;;;;;0.10;0.10;;;;;;;21.31;45.81;102636.72;5015057;28;20620;-72
2022/09/21 11:29:22;;;;;;;0.00;0.00;;;;;;;22.98;42.86;102648.66;5031773;28;20378;-72
2022/09/21 11:32:10;;;;;;;0.10;0.10;;;;;;;24.18;39.19;102651.66;5019199;28;20471;-72
2022/09/21 11:34:52;;;;;;;0.00;0.00;;;;;;;23.44;38.94;102643.06;5002651;28;20048;-72
2022/09/21 11:37:28;;;;;;;0.00;0.00;;;;;;;22.06;42.00;102644.09;5018977;28;20715;-71
2022/09/21 11:40:14;;;;;;;0.00;0.00;;;;;;;21.92;43.52;102647.31;5018849;28;20136;-71
2022/09/21 11:42:50;;;;;;;0.00;0.00;;;;;;;22.42;39.61;102640.56;5019809;28;20065;-71